sensor_id;sensor_type;location;lat;lon;timestamp;pressure;altitude;pressure_sealevel;temperature;humidity
3598;BME280;1813;52.016;8.714;2022-07-03T00:00:03;-16261.94;;;-139.71;60.99
3598;BME280;1813;52.016;8.714;2022-07-03T00:02:42;-16261.94;;;-139.71;59.96
3598;BME280;1813;52.016;8.714;2022-07-03T00:05:15;-16261.94;;;-139.71;59.60
3598;BME280;1813;52.016;8.714;2022-07-03T00:07:47;-16261.94;;;-139.71;59.91
3598;BME280;1813;52.016;8.714;2022-07-03T00:10:19;-16261.94;;;-139.71;60.35
3598;BME280;1813;52.016;8.714;2022-07-03T00:12:51;-16261.94;;;-139.71;60.41
3598;BME280;1813;52.016;8.714;2022-07-03T00:15:23;-16261.94;;;-139.71;60.18
3598;BME280;1813;52.016;8.714;2022-07-03T00:17:55;-16261.94;;;-139.71;60.86
3598;BME280;1813;52.016;8.714;2022-07-03T00:20:30;-16261.94;;;-139.71;61.39
3598;BME280;1813;52.016;8.714;2022-07-03T00:23:09;-16261.94;;;-139.71;61.43
3598;BME280;1813;52.016;8.714;2022-07-03T00:25:41;-16261.94;;;-139.71;61.77
3598;BME280;1813;52.016;8.714;2022-07-03T00:28:13;-16261.94;;;-139.71;61.95
3598;BME280;1813;52.016;8.714;2022-07-03T00:30:47;-16261.94;;;-139.71;61.71
3598;BME280;1813;52.016;8.714;2022-07-03T00:33:20;-16261.94;;;-139.71;61.26
3598;BME280;1813;52.016;8.714;2022-07-03T00:35:55;-16261.94;;;-139.71;60.47
3598;BME280;1813;52.016;8.714;2022-07-03T00:38:27;-16261.94;;;-139.71;60.72
3598;BME280;1813;52.016;8.714;2022-07-03T00:41:01;-16261.94;;;-139.71;61.23
3598;BME280;1813;52.016;8.714;2022-07-03T00:43:33;-16261.94;;;-139.71;61.88
3598;BME280;1813;52.016;8.714;2022-07-03T00:46:07;-16261.94;;;-139.71;62.01
3598;BME280;1813;52.016;8.714;2022-07-03T00:48:42;-16261.94;;;-139.71;62.35
3598;BME280;1813;52.016;8.714;2022-07-03T00:51:21;-16261.94;;;-139.71;62.75
3598;BME280;1813;52.016;8.714;2022-07-03T00:53:57;-16261.94;;;-139.71;63.37
3598;BME280;1813;52.016;8.714;2022-07-03T00:56:30;-16261.94;;;-139.71;62.69
3598;BME280;1813;52.016;8.714;2022-07-03T00:59:02;-16261.94;;;-139.71;62.89
3598;BME280;1813;52.016;8.714;2022-07-03T01:01:35;-16261.94;;;-139.71;62.33
3598;BME280;1813;52.016;8.714;2022-07-03T01:04:17;-16261.94;;;-139.71;62.20
3598;BME280;1813;52.016;8.714;2022-07-03T01:07:00;-16261.94;;;-139.71;61.35
3598;BME280;1813;52.016;8.714;2022-07-03T01:09:37;-16261.94;;;-139.71;60.81
3598;BME280;1813;52.016;8.714;2022-07-03T01:12:35;-16261.94;;;-139.71;60.67
3598;BME280;1813;52.016;8.714;2022-07-03T01:15:11;-16261.94;;;-139.71;60.52
3598;BME280;1813;52.016;8.714;2022-07-03T01:17:52;-16261.94;;;-139.71;60.39
3598;BME280;1813;52.016;8.714;2022-07-03T01:20:27;-16261.94;;;-139.71;60.63
3598;BME280;1813;52.016;8.714;2022-07-03T01:23:07;-16261.94;;;-139.71;61.52
3598;BME280;1813;52.016;8.714;2022-07-03T01:25:46;-16261.94;;;-139.71;62.15
3598;BME280;1813;52.016;8.714;2022-07-03T01:28:21;-16261.94;;;-139.71;62.05
3598;BME280;1813;52.016;8.714;2022-07-03T01:30:54;-16261.94;;;-139.71;62.11
3598;BME280;1813;52.016;8.714;2022-07-03T01:33:30;-16261.94;;;-139.71;62.69
3598;BME280;1813;52.016;8.714;2022-07-03T01:36:04;-16261.94;;;-139.71;62.95
3598;BME280;1813;52.016;8.714;2022-07-03T01:38:38;-16261.94;;;-139.71;62.01
3598;BME280;1813;52.016;8.714;2022-07-03T01:41:12;-16261.94;;;-139.71;62.11
3598;BME280;1813;52.016;8.714;2022-07-03T01:43:47;-16261.94;;;-139.71;62.38
3598;BME280;1813;52.016;8.714;2022-07-03T01:46:21;-16261.94;;;-139.71;62.36
3598;BME280;1813;52.016;8.714;2022-07-03T01:48:59;-16261.94;;;-139.71;62.62
3598;BME280;1813;52.016;8.714;2022-07-03T01:51:34;-16261.94;;;-139.71;63.04
3598;BME280;1813;52.016;8.714;2022-07-03T01:54:08;-16261.94;;;-139.71;63.61
3598;BME280;1813;52.016;8.714;2022-07-03T01:56:43;-16261.94;;;-139.71;63.84
3598;BME280;1813;52.016;8.714;2022-07-03T01:59:16;-16261.94;;;-139.71;63.45
3598;BME280;1813;52.016;8.714;2022-07-03T02:01:50;-16261.94;;;-139.71;63.36
3598;BME280;1813;52.016;8.714;2022-07-03T02:04:24;-16261.94;;;-139.71;63.50
3598;BME280;1813;52.016;8.714;2022-07-03T02:07:01;-16261.94;;;-139.71;63.70
3598;BME280;1813;52.016;8.714;2022-07-03T02:09:44;-16261.94;;;-139.71;63.69
3598;BME280;1813;52.016;8.714;2022-07-03T02:12:27;-16261.94;;;-139.71;63.97
3598;BME280;1813;52.016;8.714;2022-07-03T02:15:03;-16261.94;;;-139.71;63.70
3598;BME280;1813;52.016;8.714;2022-07-03T02:17:38;-16261.94;;;-139.71;63.35
3598;BME280;1813;52.016;8.714;2022-07-03T02:20:10;-16261.94;;;-139.71;63.06
3598;BME280;1813;52.016;8.714;2022-07-03T02:22:56;-16261.94;;;-139.71;62.81
3598;BME280;1813;52.016;8.714;2022-07-03T02:25:33;-16261.94;;;-139.71;63.25
3598;BME280;1813;52.016;8.714;2022-07-03T02:28:17;-16261.94;;;-139.71;63.30
3598;BME280;1813;52.016;8.714;2022-07-03T02:30:57;-16261.94;;;-139.71;63.84
3598;BME280;1813;52.016;8.714;2022-07-03T02:33:32;-16261.94;;;-139.71;64.01
3598;BME280;1813;52.016;8.714;2022-07-03T02:36:10;-16261.94;;;-139.71;64.00
3598;BME280;1813;52.016;8.714;2022-07-03T02:38:44;-16261.94;;;-139.71;63.44
3598;BME280;1813;52.016;8.714;2022-07-03T02:41:20;-16261.94;;;-139.71;63.63
3598;BME280;1813;52.016;8.714;2022-07-03T02:43:59;-16261.94;;;-139.71;64.09
3598;BME280;1813;52.016;8.714;2022-07-03T02:46:38;-16261.94;;;-139.71;64.63
3598;BME280;1813;52.016;8.714;2022-07-03T02:49:33;-16261.94;;;-139.71;64.94
3598;BME280;1813;52.016;8.714;2022-07-03T02:52:22;-16261.94;;;-139.71;65.12
3598;BME280;1813;52.016;8.714;2022-07-03T02:54:59;-16261.94;;;-139.71;65.03
3598;BME280;1813;52.016;8.714;2022-07-03T02:57:38;-16261.94;;;-139.71;65.11
3598;BME280;1813;52.016;8.714;2022-07-03T03:00:12;-16261.94;;;-139.71;66.17
3598;BME280;1813;52.016;8.714;2022-07-03T03:02:54;-16261.94;;;-139.71;66.38
3598;BME280;1813;52.016;8.714;2022-07-03T03:05:30;-16261.94;;;-139.71;66.18
3598;BME280;1813;52.016;8.714;2022-07-03T03:08:11;-16261.94;;;-139.71;64.93
3598;BME280;1813;52.016;8.714;2022-07-03T03:10:44;-16261.94;;;-139.71;65.17
3598;BME280;1813;52.016;8.714;2022-07-03T03:13:18;-16261.94;;;-139.71;65.79
3598;BME280;1813;52.016;8.714;2022-07-03T03:15:58;-16261.94;;;-139.71;66.21
3598;BME280;1813;52.016;8.714;2022-07-03T03:18:30;-16261.94;;;-139.71;66.35
3598;BME280;1813;52.016;8.714;2022-07-03T03:21:06;-16261.94;;;-139.71;65.79
3598;BME280;1813;52.016;8.714;2022-07-03T03:23:43;-16261.94;;;-139.71;64.92
3598;BME280;1813;52.016;8.714;2022-07-03T03:26:20;-16261.94;;;-139.71;64.32
3598;BME280;1813;52.016;8.714;2022-07-03T03:28:52;-16261.94;;;-139.71;65.00
3598;BME280;1813;52.016;8.714;2022-07-03T03:31:27;-16261.94;;;-139.71;65.78
3598;BME280;1813;52.016;8.714;2022-07-03T03:33:59;-16261.94;;;-139.71;66.38
3598;BME280;1813;52.016;8.714;2022-07-03T03:36:31;-16261.94;;;-139.71;65.54
3598;BME280;1813;52.016;8.714;2022-07-03T03:39:04;-16261.94;;;-139.71;64.63
3598;BME280;1813;52.016;8.714;2022-07-03T03:41:38;-16261.94;;;-139.71;63.93
3598;BME280;1813;52.016;8.714;2022-07-03T03:44:09;-16261.94;;;-139.71;65.40
3598;BME280;1813;52.016;8.714;2022-07-03T03:46:43;-16261.94;;;-139.71;65.32
3598;BME280;1813;52.016;8.714;2022-07-03T03:49:14;-16261.94;;;-139.71;65.79
3598;BME280;1813;52.016;8.714;2022-07-03T03:51:46;-16261.94;;;-139.71;66.25
3598;BME280;1813;52.016;8.714;2022-07-03T03:54:18;-16261.94;;;-139.71;65.89
3598;BME280;1813;52.016;8.714;2022-07-03T03:56:50;-16261.94;;;-139.71;66.67
3598;BME280;1813;52.016;8.714;2022-07-03T03:59:22;-16261.94;;;-139.71;67.55
3598;BME280;1813;52.016;8.714;2022-07-03T04:01:55;-16261.94;;;-139.71;68.29
3598;BME280;1813;52.016;8.714;2022-07-03T04:04:27;-16261.94;;;-139.71;67.71
3598;BME280;1813;52.016;8.714;2022-07-03T04:06:59;-16261.94;;;-139.71;68.24
3598;BME280;1813;52.016;8.714;2022-07-03T04:09:30;-16261.94;;;-139.71;68.57
3598;BME280;1813;52.016;8.714;2022-07-03T04:12:03;-16261.94;;;-139.71;68.58
3598;BME280;1813;52.016;8.714;2022-07-03T04:14:35;-16261.94;;;-139.71;68.72
3598;BME280;1813;52.016;8.714;2022-07-03T04:17:08;-16261.94;;;-139.71;68.64
3598;BME280;1813;52.016;8.714;2022-07-03T04:19:40;-16261.94;;;-139.71;68.72
3598;BME280;1813;52.016;8.714;2022-07-03T04:22:12;-16261.94;;;-139.71;69.16
3598;BME280;1813;52.016;8.714;2022-07-03T04:24:43;-16261.94;;;-139.71;68.51
3598;BME280;1813;52.016;8.714;2022-07-03T04:27:15;-16261.94;;;-139.71;67.60
3598;BME280;1813;52.016;8.714;2022-07-03T04:29:47;-16261.94;;;-139.71;67.45
3598;BME280;1813;52.016;8.714;2022-07-03T04:32:20;-16261.94;;;-139.71;67.88
3598;BME280;1813;52.016;8.714;2022-07-03T04:34:52;-16261.94;;;-139.71;67.78
3598;BME280;1813;52.016;8.714;2022-07-03T04:37:24;-16261.94;;;-139.71;67.79
3598;BME280;1813;52.016;8.714;2022-07-03T04:39:55;-16261.94;;;-139.71;68.00
3598;BME280;1813;52.016;8.714;2022-07-03T04:42:27;-16261.94;;;-139.71;67.82
3598;BME280;1813;52.016;8.714;2022-07-03T04:44:59;-16261.94;;;-139.71;67.45
3598;BME280;1813;52.016;8.714;2022-07-03T04:47:32;-16261.94;;;-139.71;67.36
3598;BME280;1813;52.016;8.714;2022-07-03T04:50:05;-16261.94;;;-139.71;66.99
3598;BME280;1813;52.016;8.714;2022-07-03T04:52:37;-16261.94;;;-139.71;66.99
3598;BME280;1813;52.016;8.714;2022-07-03T04:55:09;-16261.94;;;-139.71;67.08
3598;BME280;1813;52.016;8.714;2022-07-03T04:57:40;-16261.94;;;-139.71;68.23
3598;BME280;1813;52.016;8.714;2022-07-03T05:00:13;-16261.94;;;-139.71;69.33
3598;BME280;1813;52.016;8.714;2022-07-03T05:02:46;-16261.94;;;-139.71;69.75
3598;BME280;1813;52.016;8.714;2022-07-03T05:05:18;-16261.94;;;-139.71;69.57
3598;BME280;1813;52.016;8.714;2022-07-03T05:07:50;-16261.94;;;-139.71;69.08
3598;BME280;1813;52.016;8.714;2022-07-03T05:10:22;-16261.94;;;-139.71;68.74
3598;BME280;1813;52.016;8.714;2022-07-03T05:12:53;-16261.94;;;-139.71;68.82
3598;BME280;1813;52.016;8.714;2022-07-03T05:15:25;-16261.94;;;-139.71;68.34
3598;BME280;1813;52.016;8.714;2022-07-03T05:17:58;-16261.94;;;-139.71;68.52
3598;BME280;1813;52.016;8.714;2022-07-03T05:20:30;-16261.94;;;-139.71;68.88
3598;BME280;1813;52.016;8.714;2022-07-03T05:23:02;-16261.94;;;-139.71;68.51
3598;BME280;1813;52.016;8.714;2022-07-03T05:25:34;-16261.94;;;-139.71;68.29
3598;BME280;1813;52.016;8.714;2022-07-03T05:28:06;-16261.94;;;-139.71;67.58
3598;BME280;1813;52.016;8.714;2022-07-03T05:30:38;-16261.94;;;-139.71;67.63
3598;BME280;1813;52.016;8.714;2022-07-03T05:33:11;-16261.94;;;-139.71;66.42
3598;BME280;1813;52.016;8.714;2022-07-03T05:35:42;-16261.94;;;-139.71;67.27
3598;BME280;1813;52.016;8.714;2022-07-03T05:38:14;-16261.94;;;-139.71;67.32
3598;BME280;1813;52.016;8.714;2022-07-03T05:41:07;-16261.94;;;-139.71;66.40
3598;BME280;1813;52.016;8.714;2022-07-03T05:43:38;-16261.94;;;-139.71;66.11
3598;BME280;1813;52.016;8.714;2022-07-03T05:46:10;-16261.94;;;-139.71;66.24
3598;BME280;1813;52.016;8.714;2022-07-03T05:48:43;-16261.94;;;-139.71;66.52
3598;BME280;1813;52.016;8.714;2022-07-03T05:51:15;-16261.94;;;-139.71;66.23
3598;BME280;1813;52.016;8.714;2022-07-03T05:53:46;-16261.94;;;-139.71;66.33
3598;BME280;1813;52.016;8.714;2022-07-03T05:56:18;-16261.94;;;-139.71;65.89
3598;BME280;1813;52.016;8.714;2022-07-03T05:58:50;-16261.94;;;-139.71;65.35
3598;BME280;1813;52.016;8.714;2022-07-03T06:01:22;-16261.94;;;-139.71;64.85
3598;BME280;1813;52.016;8.714;2022-07-03T06:03:55;-16261.94;;;-139.71;64.48
3598;BME280;1813;52.016;8.714;2022-07-03T06:06:27;-16261.94;;;-139.71;63.32
3598;BME280;1813;52.016;8.714;2022-07-03T06:08:59;-16261.94;;;-139.71;62.66
3598;BME280;1813;52.016;8.714;2022-07-03T06:11:30;-16261.94;;;-139.71;62.57
3598;BME280;1813;52.016;8.714;2022-07-03T06:14:02;-16261.94;;;-139.71;62.06
3598;BME280;1813;52.016;8.714;2022-07-03T06:16:34;-16261.94;;;-139.71;61.26
3598;BME280;1813;52.016;8.714;2022-07-03T06:19:07;-16261.94;;;-139.71;61.02
3598;BME280;1813;52.016;8.714;2022-07-03T06:21:39;-16261.94;;;-139.71;60.72
3598;BME280;1813;52.016;8.714;2022-07-03T06:24:11;-16261.94;;;-139.71;60.23
3598;BME280;1813;52.016;8.714;2022-07-03T06:26:43;-16261.94;;;-139.71;58.27
3598;BME280;1813;52.016;8.714;2022-07-03T06:29:15;-16261.94;;;-139.71;58.10
3598;BME280;1813;52.016;8.714;2022-07-03T06:31:47;-16261.94;;;-139.71;57.22
3598;BME280;1813;52.016;8.714;2022-07-03T06:34:20;-16261.94;;;-139.71;57.27
3598;BME280;1813;52.016;8.714;2022-07-03T06:36:52;-16261.94;;;-139.71;54.93
3598;BME280;1813;52.016;8.714;2022-07-03T06:39:23;-16261.94;;;-139.71;55.85
3598;BME280;1813;52.016;8.714;2022-07-03T06:41:55;-16261.94;;;-139.71;55.34
3598;BME280;1813;52.016;8.714;2022-07-03T06:44:28;-16261.94;;;-139.71;55.10
3598;BME280;1813;52.016;8.714;2022-07-03T06:46:59;-16261.94;;;-139.71;53.86
3598;BME280;1813;52.016;8.714;2022-07-03T06:49:35;-16261.94;;;-139.71;53.05
3598;BME280;1813;52.016;8.714;2022-07-03T06:52:06;-16261.94;;;-139.71;50.68
3598;BME280;1813;52.016;8.714;2022-07-03T06:54:39;-16261.94;;;-139.71;50.04
3598;BME280;1813;52.016;8.714;2022-07-03T06:57:14;-16261.94;;;-139.71;48.70
3598;BME280;1813;52.016;8.714;2022-07-03T06:59:45;-16261.94;;;-139.71;48.14
3598;BME280;1813;52.016;8.714;2022-07-03T07:02:18;-16261.94;;;-139.71;46.92
3598;BME280;1813;52.016;8.714;2022-07-03T07:04:51;-16261.94;;;-139.71;47.78
3598;BME280;1813;52.016;8.714;2022-07-03T07:07:23;-16261.94;;;-139.71;46.99
3598;BME280;1813;52.016;8.714;2022-07-03T07:09:55;-16261.94;;;-139.71;46.34
3598;BME280;1813;52.016;8.714;2022-07-03T07:12:27;-16261.94;;;-139.71;45.84
3598;BME280;1813;52.016;8.714;2022-07-03T07:14:58;-16261.94;;;-139.71;44.85
3598;BME280;1813;52.016;8.714;2022-07-03T07:17:30;-16261.94;;;-139.71;45.19
3598;BME280;1813;52.016;8.714;2022-07-03T07:20:05;-16261.94;;;-139.71;44.17
3598;BME280;1813;52.016;8.714;2022-07-03T07:22:37;-16261.94;;;-139.71;44.31
3598;BME280;1813;52.016;8.714;2022-07-03T07:25:09;-16261.94;;;-139.71;42.76
3598;BME280;1813;52.016;8.714;2022-07-03T07:27:41;-16261.94;;;-139.71;42.96
3598;BME280;1813;52.016;8.714;2022-07-03T07:30:13;-16261.94;;;-139.71;42.61
3598;BME280;1813;52.016;8.714;2022-07-03T07:32:45;-16261.94;;;-139.71;42.14
3598;BME280;1813;52.016;8.714;2022-07-03T07:35:18;-16261.94;;;-139.71;42.38
3598;BME280;1813;52.016;8.714;2022-07-03T07:37:50;-16261.94;;;-139.71;42.04
3598;BME280;1813;52.016;8.714;2022-07-03T07:40:22;-16261.94;;;-139.71;42.15
3598;BME280;1813;52.016;8.714;2022-07-03T07:42:54;-16261.94;;;-139.71;42.04
3598;BME280;1813;52.016;8.714;2022-07-03T07:45:26;-16261.94;;;-139.71;39.54
3598;BME280;1813;52.016;8.714;2022-07-03T07:47:58;-16261.94;;;-139.71;38.21
3598;BME280;1813;52.016;8.714;2022-07-03T07:50:31;-16261.94;;;-139.71;38.74
3598;BME280;1813;52.016;8.714;2022-07-03T07:53:03;-16261.94;;;-139.71;37.70
3598;BME280;1813;52.016;8.714;2022-07-03T07:55:35;-16261.94;;;-139.71;38.76
3598;BME280;1813;52.016;8.714;2022-07-03T07:58:07;-16261.94;;;-139.71;37.90
3598;BME280;1813;52.016;8.714;2022-07-03T08:00:39;-16261.94;;;-139.71;36.92
3598;BME280;1813;52.016;8.714;2022-07-03T08:03:31;-16261.94;;;-139.71;36.41
3598;BME280;1813;52.016;8.714;2022-07-03T08:06:22;-16261.94;;;-139.71;36.83
3598;BME280;1813;52.016;8.714;2022-07-03T08:08:54;-16261.94;;;-139.71;38.05
3598;BME280;1813;52.016;8.714;2022-07-03T08:11:26;-16261.94;;;-139.71;36.33
3598;BME280;1813;52.016;8.714;2022-07-03T08:13:58;-16261.94;;;-139.71;37.47
3598;BME280;1813;52.016;8.714;2022-07-03T08:16:30;-16261.94;;;-139.71;35.88
3598;BME280;1813;52.016;8.714;2022-07-03T08:19:02;-16261.94;;;-139.71;34.95
3598;BME280;1813;52.016;8.714;2022-07-03T08:21:35;-16261.94;;;-139.71;35.09
3598;BME280;1813;52.016;8.714;2022-07-03T08:24:07;-16261.94;;;-139.71;34.78
3598;BME280;1813;52.016;8.714;2022-07-03T08:26:39;-16261.94;;;-139.71;34.46
3598;BME280;1813;52.016;8.714;2022-07-03T08:29:11;-16261.94;;;-139.71;35.37
3598;BME280;1813;52.016;8.714;2022-07-03T08:31:44;-16261.94;;;-139.71;34.87
3598;BME280;1813;52.016;8.714;2022-07-03T08:34:16;-16261.94;;;-139.71;35.35
3598;BME280;1813;52.016;8.714;2022-07-03T08:36:50;-16261.94;;;-139.71;35.69
3598;BME280;1813;52.016;8.714;2022-07-03T08:39:22;-16261.94;;;-139.71;34.38
3598;BME280;1813;52.016;8.714;2022-07-03T08:41:55;-16261.94;;;-139.71;33.17
3598;BME280;1813;52.016;8.714;2022-07-03T08:44:27;-16261.94;;;-139.71;34.37
3598;BME280;1813;52.016;8.714;2022-07-03T08:47:02;-16261.94;;;-139.71;33.50
3598;BME280;1813;52.016;8.714;2022-07-03T08:49:35;-16261.94;;;-139.71;32.26
3598;BME280;1813;52.016;8.714;2022-07-03T08:52:09;-16261.94;;;-139.71;31.60
3598;BME280;1813;52.016;8.714;2022-07-03T08:54:42;-16261.94;;;-139.71;32.05
3598;BME280;1813;52.016;8.714;2022-07-03T08:57:14;-16261.94;;;-139.71;33.23
3598;BME280;1813;52.016;8.714;2022-07-03T08:59:53;-16261.94;;;-139.71;33.23
3598;BME280;1813;52.016;8.714;2022-07-03T09:02:26;-16261.94;;;-139.71;33.04
3598;BME280;1813;52.016;8.714;2022-07-03T09:04:59;-16261.94;;;-139.71;32.91
3598;BME280;1813;52.016;8.714;2022-07-03T09:07:35;-16261.94;;;-139.71;30.97
3598;BME280;1813;52.016;8.714;2022-07-03T09:10:09;-16261.94;;;-139.71;32.30
3598;BME280;1813;52.016;8.714;2022-07-03T09:12:42;-16261.94;;;-139.71;31.48
3598;BME280;1813;52.016;8.714;2022-07-03T09:15:16;-16261.94;;;-139.71;32.35
3598;BME280;1813;52.016;8.714;2022-07-03T09:17:58;-16261.94;;;-139.71;32.42
3598;BME280;1813;52.016;8.714;2022-07-03T09:20:32;-16261.94;;;-139.71;30.65
3598;BME280;1813;52.016;8.714;2022-07-03T09:23:11;-16261.94;;;-139.71;30.88
3598;BME280;1813;52.016;8.714;2022-07-03T09:25:54;-16261.94;;;-139.71;30.26
3598;BME280;1813;52.016;8.714;2022-07-03T09:28:42;-16261.94;;;-139.71;30.44
3598;BME280;1813;52.016;8.714;2022-07-03T09:31:16;-16261.94;;;-139.71;30.21
3598;BME280;1813;52.016;8.714;2022-07-03T09:33:53;-16261.94;;;-139.71;30.26
3598;BME280;1813;52.016;8.714;2022-07-03T09:36:40;-16261.94;;;-139.71;30.38
3598;BME280;1813;52.016;8.714;2022-07-03T09:39:19;-16261.94;;;-139.71;30.39
3598;BME280;1813;52.016;8.714;2022-07-03T09:41:56;-16261.94;;;-139.71;31.74
3598;BME280;1813;52.016;8.714;2022-07-03T09:44:33;-16261.94;;;-139.71;31.27
3598;BME280;1813;52.016;8.714;2022-07-03T09:47:15;-16261.94;;;-139.71;30.34
3598;BME280;1813;52.016;8.714;2022-07-03T09:49:49;-16261.94;;;-139.71;29.24
3598;BME280;1813;52.016;8.714;2022-07-03T09:52:30;-16261.94;;;-139.71;30.11
3598;BME280;1813;52.016;8.714;2022-07-03T09:55:14;-16261.94;;;-139.71;29.72
3598;BME280;1813;52.016;8.714;2022-07-03T09:57:58;-16261.94;;;-139.71;30.59
3598;BME280;1813;52.016;8.714;2022-07-03T10:00:32;-16261.94;;;-139.71;29.12
3598;BME280;1813;52.016;8.714;2022-07-03T10:03:06;-16261.94;;;-139.71;29.23
3598;BME280;1813;52.016;8.714;2022-07-03T10:05:40;-16261.94;;;-139.71;28.27
3598;BME280;1813;52.016;8.714;2022-07-03T10:08:14;-16261.94;;;-139.71;28.37
3598;BME280;1813;52.016;8.714;2022-07-03T10:10:48;-16261.94;;;-139.71;28.02
3598;BME280;1813;52.016;8.714;2022-07-03T10:13:21;-16261.94;;;-139.71;29.04
3598;BME280;1813;52.016;8.714;2022-07-03T10:15:54;-16261.94;;;-139.71;27.91
3598;BME280;1813;52.016;8.714;2022-07-03T10:18:29;-16261.94;;;-139.71;27.77
3598;BME280;1813;52.016;8.714;2022-07-03T10:21:05;-16261.94;;;-139.71;27.81
3598;BME280;1813;52.016;8.714;2022-07-03T10:23:37;-16261.94;;;-139.71;28.18
3598;BME280;1813;52.016;8.714;2022-07-03T10:26:11;-16261.94;;;-139.71;28.07
3598;BME280;1813;52.016;8.714;2022-07-03T10:28:43;-16261.94;;;-139.71;27.93
3598;BME280;1813;52.016;8.714;2022-07-03T10:31:16;-16261.94;;;-139.71;29.83
3598;BME280;1813;52.016;8.714;2022-07-03T10:33:48;-16261.94;;;-139.71;27.91
3598;BME280;1813;52.016;8.714;2022-07-03T10:36:20;-16261.94;;;-139.71;27.84
3598;BME280;1813;52.016;8.714;2022-07-03T10:38:55;-16261.94;;;-139.71;27.02
3598;BME280;1813;52.016;8.714;2022-07-03T10:41:34;-16261.94;;;-139.71;27.91
3598;BME280;1813;52.016;8.714;2022-07-03T10:44:24;-16261.94;;;-139.71;27.98
3598;BME280;1813;52.016;8.714;2022-07-03T10:47:44;-16261.94;;;-139.71;29.23
3598;BME280;1813;52.016;8.714;2022-07-03T10:50:19;-16261.94;;;-139.71;29.45
3598;BME280;1813;52.016;8.714;2022-07-03T10:52:51;-16261.94;;;-139.71;30.59
3598;BME280;1813;52.016;8.714;2022-07-03T10:55:23;-16261.94;;;-139.71;29.12
3598;BME280;1813;52.016;8.714;2022-07-03T10:58:07;-16261.94;;;-139.71;29.97
3598;BME280;1813;52.016;8.714;2022-07-03T11:00:51;-16261.94;;;-139.71;29.40
3598;BME280;1813;52.016;8.714;2022-07-03T11:03:51;-16261.94;;;-139.71;28.87
3598;BME280;1813;52.016;8.714;2022-07-03T11:09:30;-16261.94;;;-139.71;28.36
3598;BME280;1813;52.016;8.714;2022-07-03T11:12:02;-16261.94;;;-139.71;29.15
3598;BME280;1813;52.016;8.714;2022-07-03T11:14:35;-16261.94;;;-139.71;29.69
3598;BME280;1813;52.016;8.714;2022-07-03T11:17:17;-16261.94;;;-139.71;29.43
3598;BME280;1813;52.016;8.714;2022-07-03T11:19:49;-16261.94;;;-139.71;29.43
3598;BME280;1813;52.016;8.714;2022-07-03T11:22:44;-16261.94;;;-139.71;29.87
3598;BME280;1813;52.016;8.714;2022-07-03T11:25:21;-16261.94;;;-139.71;28.68
3598;BME280;1813;52.016;8.714;2022-07-03T11:27:53;-16261.94;;;-139.71;29.71
3598;BME280;1813;52.016;8.714;2022-07-03T11:30:27;-16261.94;;;-139.71;28.91
3598;BME280;1813;52.016;8.714;2022-07-03T11:33:00;-16261.94;;;-139.71;29.58
3598;BME280;1813;52.016;8.714;2022-07-03T11:35:43;-16261.94;;;-139.71;29.94
3598;BME280;1813;52.016;8.714;2022-07-03T11:38:19;-16261.94;;;-139.71;29.55
3598;BME280;1813;52.016;8.714;2022-07-03T11:40:52;-16261.94;;;-139.71;29.17
3598;BME280;1813;52.016;8.714;2022-07-03T11:43:24;-16261.94;;;-139.71;30.21
3598;BME280;1813;52.016;8.714;2022-07-03T11:45:58;-16261.94;;;-139.71;30.19
3598;BME280;1813;52.016;8.714;2022-07-03T11:48:30;-16261.94;;;-139.71;29.15
3598;BME280;1813;52.016;8.714;2022-07-03T11:51:03;-16261.94;;;-139.71;29.69
3598;BME280;1813;52.016;8.714;2022-07-03T11:53:37;-16261.94;;;-139.71;30.19
3598;BME280;1813;52.016;8.714;2022-07-03T11:56:12;-16261.94;;;-139.71;30.87
3598;BME280;1813;52.016;8.714;2022-07-03T11:58:46;-16261.94;;;-139.71;30.04
3598;BME280;1813;52.016;8.714;2022-07-03T12:01:31;-16261.94;;;-139.71;29.24
3598;BME280;1813;52.016;8.714;2022-07-03T12:04:05;-16261.94;;;-139.71;30.01
3598;BME280;1813;52.016;8.714;2022-07-03T12:06:39;-16261.94;;;-139.71;31.24
3598;BME280;1813;52.016;8.714;2022-07-03T12:09:13;-16261.94;;;-139.71;30.42
3598;BME280;1813;52.016;8.714;2022-07-03T12:11:55;-16261.94;;;-139.71;29.42
3598;BME280;1813;52.016;8.714;2022-07-03T12:14:42;-16261.94;;;-139.71;28.61
3598;BME280;1813;52.016;8.714;2022-07-03T12:17:18;-16261.94;;;-139.71;28.87
3598;BME280;1813;52.016;8.714;2022-07-03T12:19:52;-16261.94;;;-139.71;27.14
3598;BME280;1813;52.016;8.714;2022-07-03T12:22:26;-16261.94;;;-139.71;27.20
3598;BME280;1813;52.016;8.714;2022-07-03T12:25:02;-16261.94;;;-139.71;27.13
3598;BME280;1813;52.016;8.714;2022-07-03T12:27:35;-16261.94;;;-139.71;28.28
3598;BME280;1813;52.016;8.714;2022-07-03T12:30:10;-16261.94;;;-139.71;28.39
3598;BME280;1813;52.016;8.714;2022-07-03T12:32:45;-16261.94;;;-139.71;28.77
3598;BME280;1813;52.016;8.714;2022-07-03T12:35:20;-16261.94;;;-139.71;28.92
3598;BME280;1813;52.016;8.714;2022-07-03T12:37:53;-16261.94;;;-139.71;30.12
3598;BME280;1813;52.016;8.714;2022-07-03T12:40:25;-16261.94;;;-139.71;30.12
3598;BME280;1813;52.016;8.714;2022-07-03T12:42:57;-16261.94;;;-139.71;30.11
3598;BME280;1813;52.016;8.714;2022-07-03T12:45:29;-16261.94;;;-139.71;29.98
3598;BME280;1813;52.016;8.714;2022-07-03T12:48:04;-16261.94;;;-139.71;29.62
3598;BME280;1813;52.016;8.714;2022-07-03T12:50:46;-16261.94;;;-139.71;29.79
3598;BME280;1813;52.016;8.714;2022-07-03T12:53:28;-16261.94;;;-139.71;29.18
3598;BME280;1813;52.016;8.714;2022-07-03T12:56:00;-16261.94;;;-139.71;28.31
3598;BME280;1813;52.016;8.714;2022-07-03T12:58:34;-16261.94;;;-139.71;29.21
3598;BME280;1813;52.016;8.714;2022-07-03T13:01:26;-16261.94;;;-139.71;28.22
3598;BME280;1813;52.016;8.714;2022-07-03T13:03:59;-16261.94;;;-139.71;28.63
3598;BME280;1813;52.016;8.714;2022-07-03T13:06:31;-16261.94;;;-139.71;28.83
3598;BME280;1813;52.016;8.714;2022-07-03T13:09:05;-16261.94;;;-139.71;29.64
3598;BME280;1813;52.016;8.714;2022-07-03T13:11:38;-16261.94;;;-139.71;30.03
3598;BME280;1813;52.016;8.714;2022-07-03T13:14:13;-16261.94;;;-139.71;30.11
3598;BME280;1813;52.016;8.714;2022-07-03T13:16:47;-16261.94;;;-139.71;29.41
3598;BME280;1813;52.016;8.714;2022-07-03T13:19:22;-16261.94;;;-139.71;28.85
3598;BME280;1813;52.016;8.714;2022-07-03T13:21:56;-16261.94;;;-139.71;28.32
3598;BME280;1813;52.016;8.714;2022-07-03T13:24:28;-16261.94;;;-139.71;27.09
3598;BME280;1813;52.016;8.714;2022-07-03T13:27:00;-16261.94;;;-139.71;27.75
3598;BME280;1813;52.016;8.714;2022-07-03T13:29:32;-16261.94;;;-139.71;28.00
3598;BME280;1813;52.016;8.714;2022-07-03T13:32:05;-16261.94;;;-139.71;27.77